Pagina principale
METAR-TAF:

METAR-TAF

Aeroporti :

Lechfeld, Germania

latitudine: 48-11N, longitudine: 010-52E, altezza: 555 m

Osservazione

Il bollettino è stato emesso 1 ora e 2 minuti fa, alle 02:20 UTC
Vento 3 kt da sud
Temperature 9°C
Umidità 93%
Pressione 1019 hPa
Visibilità 10 km o più

METAR: ETSL 260220Z AUTO 18003KT 9999 // ////// 09/08 Q1019 ///

Ora: 05:22 (03:22 UTC)


TAF: mancante

Osservazioni e previsioni meteorologiche di più di 4000 aeroporti (messaggi METAR e TAF).

Le stazioni disponibili sono rappresentate dai dischi gialli e rossi sulla carta.

Puntare il mouse per vedere il nome della stazione.

Clicca sopra per visualizzare le osservazioni e previsioni meteorologiche.

Per cambiare la mappa : fare clic sui pulsanti verdi con una croce nera per ingrandire, il pulsante verde con un trattino per diminuire, o sulla freccia verde per le mappe adiacenti.


METAR-TAF: